Time;durP1;ratioP1;P1;durP2;ratioP2;P2;SDS_P1;SDS_P2;PMS_P1;PMS_P2;Temp;Humidity;BMP_temperature;BMP_pressure;BME280_temperature;BME280_humidity;BME280_pressure;Samples;Min_cycle;Max_cycle;Signal;HPM_P1;HPM_P2
2024/01/02 00:01:34;;;;;;;8.75;2.70;;;6.00;99.90;;;;;;5090988;28;20055;-47
2024/01/02 00:04:00;;;;;;;7.97;2.63;;;6.00;99.90;;;;;;5092164;28;20051;-45
2024/01/02 00:06:25;;;;;;;7.28;2.05;;;6.00;99.90;;;;;;5091727;28;20481;-46
2024/01/02 00:08:51;;;;;;;6.50;2.25;;;6.10;99.90;;;;;;5091834;28;20449;-46
2024/01/02 00:11:17;;;;;;;7.82;2.25;;;6.10;99.90;;;;;;5091188;28;20039;-45
2024/01/02 00:13:42;;;;;;;6.43;2.20;;;6.10;99.90;;;;;;5091334;28;20040;-45
2024/01/02 00:16:08;;;;;;;6.03;1.90;;;6.10;99.90;;;;;;5090872;28;20082;-45
2024/01/02 00:18:34;;;;;;;9.40;2.00;;;6.00;99.90;;;;;;5090537;28;20076;-46
2024/01/02 00:20:59;;;;;;;8.00;2.03;;;6.00;99.90;;;;;;5091324;28;20048;-45
2024/01/02 00:23:25;;;;;;;7.82;2.03;;;6.00;99.90;;;;;;5091202;28;20076;-45
2024/01/02 00:25:51;;;;;;;7.75;2.30;;;6.00;99.90;;;;;;5090012;28;20248;-46
2024/01/02 00:28:18;;;;;;;7.28;1.90;;;6.00;99.90;;;;;;5091204;28;20123;-44
2024/01/02 00:30:44;;;;;;;9.38;2.40;;;6.00;99.90;;;;;;5091094;28;20036;-46
2024/01/02 00:33:10;;;;;;;9.20;2.10;;;6.10;99.90;;;;;;5090900;28;20091;-47
2024/01/02 00:35:37;;;;;;;12.55;2.40;;;6.10;99.90;;;;;;5086318;28;20346;-45
2024/01/02 00:38:03;;;;;;;12.48;2.42;;;6.10;99.90;;;;;;5094427;28;20458;-45
2024/01/02 00:40:29;;;;;;;15.43;2.60;;;6.10;99.90;;;;;;5091778;28;20139;-44
2024/01/02 00:42:55;;;;;;;13.60;2.80;;;6.10;99.90;;;;;;5090454;28;20052;-46
2024/01/02 00:45:21;;;;;;;12.50;2.78;;;6.20;99.90;;;;;;5090411;28;20050;-45
2024/01/02 00:47:47;;;;;;;9.63;2.63;;;6.20;99.90;;;;;;5089932;28;20032;-45
2024/01/02 00:50:12;;;;;;;9.48;2.88;;;6.20;99.90;;;;;;5089779;28;20115;-45
2024/01/02 00:52:38;;;;;;;17.20;3.00;;;6.20;99.90;;;;;;5090897;28;20374;-45
2024/01/02 00:55:04;;;;;;;17.88;3.38;;;6.20;99.90;;;;;;5090557;28;20044;-46
2024/01/02 00:57:30;;;;;;;11.80;2.90;;;6.20;99.90;;;;;;5087879;28;20094;-46
2024/01/02 00:59:58;;;;;;;16.67;4.35;;;6.20;99.90;;;;;;5090461;28;20432;-45
2024/01/02 01:02:23;;;;;;;15.43;3.13;;;6.20;99.90;;;;;;5090554;28;20028;-45
2024/01/02 01:04:49;;;;;;;15.10;3.30;;;6.20;99.90;;;;;;5090177;28;20052;-44
2024/01/02 01:07:15;;;;;;;17.23;3.03;;;6.20;99.90;;;;;;5088753;28;20040;-45
2024/01/02 01:09:41;;;;;;;16.67;3.35;;;6.20;99.90;;;;;;5089529;28;20036;-45
2024/01/02 01:12:07;;;;;;;18.27;3.05;;;6.20;99.90;;;;;;5090091;28;20047;-45
2024/01/02 01:14:33;;;;;;;14.52;3.17;;;6.30;99.90;;;;;;5090419;28;20283;-44
2024/01/02 01:16:59;;;;;;;14.13;2.97;;;6.20;99.90;;;;;;5090181;28;20127;-45
2024/01/02 01:19:25;;;;;;;18.60;3.88;;;6.30;99.90;;;;;;5088270;28;20105;-45
2024/01/02 01:21:51;;;;;;;15.18;4.03;;;6.30;99.90;;;;;;5090141;28;20119;-46
2024/01/02 01:24:17;;;;;;;17.23;3.58;;;6.30;99.90;;;;;;5086922;28;20123;-46
2024/01/02 01:26:43;;;;;;;14.48;3.60;;;6.30;99.90;;;;;;5086961;28;20050;-45
2024/01/02 01:29:09;;;;;;;18.77;4.38;;;6.30;99.90;;;;;;5087683;28;20044;-45
2024/01/02 01:31:34;;;;;;;18.42;3.75;;;6.30;99.90;;;;;;5091384;28;20402;-46
2024/01/02 01:34:00;;;;;;;15.25;4.00;;;6.30;99.90;;;;;;5092460;28;20077;-46
2024/01/02 01:36:26;;;;;;;14.82;4.07;;;6.40;99.90;;;;;;5092749;28;20048;-45
2024/01/02 01:38:52;;;;;;;16.23;4.13;;;6.30;99.90;;;;;;5091933;28;20044;-46
2024/01/02 01:41:18;;;;;;;16.02;3.65;;;6.30;99.90;;;;;;5091114;28;20043;-46
2024/01/02 01:43:44;;;;;;;15.50;4.28;;;6.40;99.90;;;;;;5080551;28;20113;-45
2024/01/02 01:46:10;;;;;;;16.38;4.43;;;6.40;99.90;;;;;;5092505;28;20495;-46
2024/01/02 01:48:36;;;;;;;21.80;4.82;;;6.40;99.90;;;;;;5091694;28;20541;-44
2024/01/02 01:51:02;;;;;;;16.48;4.60;;;6.30;99.90;;;;;;5092587;28;20039;-46
2024/01/02 01:53:28;;;;;;;13.90;4.25;;;6.30;99.90;;;;;;5092647;28;20040;-46
2024/01/02 01:55:55;;;;;;;15.77;4.95;;;6.40;99.90;;;;;;5091400;28;20457;-45
2024/01/02 01:58:20;;;;;;;12.63;4.30;;;6.40;99.90;;;;;;5090929;28;20393;-45
2024/01/02 02:00:46;;;;;;;14.05;4.90;;;6.40;99.90;;;;;;5090966;28;20036;-46
2024/01/02 02:03:13;;;;;;;12.43;4.68;;;6.50;99.90;;;;;;5092206;28;20123;-46
2024/01/02 02:05:39;;;;;;;19.27;4.90;;;6.60;99.90;;;;;;5091383;28;20047;-49
2024/01/02 02:08:04;;;;;;;11.40;4.35;;;6.40;99.90;;;;;;5089132;28;20036;-48
2024/01/02 02:10:30;;;;;;;14.07;5.03;;;6.50;99.90;;;;;;5090934;28;20462;-46
2024/01/02 02:12:57;;;;;;;16.10;4.40;;;6.50;99.90;;;;;;5092310;28;20051;-46
2024/01/02 02:15:23;;;;;;;14.88;4.38;;;6.50;99.90;;;;;;5090945;28;20036;-46
2024/01/02 02:17:49;;;;;;;17.52;4.07;;;6.50;99.90;;;;;;5090840;28;20370;-48
2024/01/02 02:20:15;;;;;;;14.57;4.55;;;6.50;99.90;;;;;;5091232;28;20035;-47
2024/01/02 02:22:51;;;;;;;11.80;4.15;;;6.50;99.90;;;;;;5073324;28;20040;-47
2024/01/02 02:25:17;;;;;;;12.93;4.38;;;6.50;99.90;;;;;;5091534;28;20044;-46
2024/01/02 02:27:44;;;;;;;10.25;3.80;;;6.50;99.90;;;;;;5090999;28;20446;-46
2024/01/02 02:30:10;;;;;;;14.95;3.95;;;6.50;99.90;;;;;;5091691;28;20040;-45
2024/01/02 02:32:36;;;;;;;15.57;4.20;;;6.50;99.90;;;;;;5089335;28;20462;-47
2024/01/02 02:35:02;;;;;;;17.20;4.18;;;6.50;99.90;;;;;;5090204;28;20067;-46
2024/01/02 02:37:27;;;;;;;11.63;3.92;;;6.60;99.90;;;;;;5089199;28;20071;-46
2024/01/02 02:39:53;;;;;;;11.77;3.75;;;6.50;99.90;;;;;;5089744;28;20405;-46
2024/01/02 02:42:18;;;;;;;16.00;4.65;;;6.50;99.90;;;;;;5089570;28;20047;-47
2024/01/02 02:44:44;;;;;;;14.57;5.15;;;6.50;99.90;;;;;;5091943;28;20048;-47
2024/01/02 02:47:10;;;;;;;13.32;3.90;;;6.60;99.90;;;;;;5092531;28;20427;-46
2024/01/02 02:49:41;;;;;;;12.30;4.10;;;6.50;99.90;;;;;;5091163;28;20044;-45
2024/01/02 02:52:06;;;;;;;13.55;4.22;;;6.50;99.90;;;;;;5091636;28;20056;-47
2024/01/02 02:54:32;;;;;;;10.77;4.22;;;6.50;99.90;;;;;;5090792;28;20043;-47
2024/01/02 02:56:58;;;;;;;13.75;4.40;;;6.50;99.90;;;;;;5073934;28;20482;-47
2024/01/02 02:59:23;;;;;;;12.60;3.85;;;6.50;99.90;;;;;;5090016;28;20028;-45
2024/01/02 03:01:49;;;;;;;14.52;4.07;;;6.50;99.90;;;;;;5088865;28;20508;-47
2024/01/02 03:04:14;;;;;;;13.23;4.60;;;6.50;99.90;;;;;;5090589;28;20040;-45
2024/01/02 03:06:40;;;;;;;11.85;3.97;;;6.50;99.90;;;;;;5090018;28;20044;-45
2024/01/02 03:09:06;;;;;;;12.32;4.50;;;6.50;99.90;;;;;;5089561;28;20535;-46
2024/01/02 03:11:32;;;;;;;11.77;4.07;;;6.50;99.90;;;;;;5090130;28;20151;-45
2024/01/02 03:13:57;;;;;;;10.52;3.70;;;6.60;99.90;;;;;;5090645;28;20160;-46
2024/01/02 03:16:23;;;;;;;11.15;3.65;;;6.60;99.90;;;;;;5090207;28;20193;-45
2024/01/02 03:18:49;;;;;;;9.40;3.50;;;6.50;99.90;;;;;;5090121;28;20051;-47
2024/01/02 03:21:15;;;;;;;10.07;3.40;;;6.50;99.90;;;;;;5090904;28;20036;-45
2024/01/02 03:23:41;;;;;;;8.38;3.50;;;6.50;99.90;;;;;;5088011;28;20060;-46
2024/01/02 03:26:06;;;;;;;9.63;3.63;;;6.60;99.90;;;;;;5089785;28;20040;-46
2024/01/02 03:28:32;;;;;;;7.72;3.40;;;6.60;99.90;;;;;;5090482;28;20085;-45
2024/01/02 03:30:58;;;;;;;9.68;3.38;;;6.60;99.90;;;;;;5089467;28;20032;-47
2024/01/02 03:33:23;;;;;;;5.72;3.60;;;6.60;99.90;;;;;;5089513;28;20040;-46
2024/01/02 03:35:49;;;;;;;9.82;3.80;;;6.60;99.90;;;;;;5089307;28;20943;-46
2024/01/02 03:38:15;;;;;;;8.73;3.75;;;6.60;99.90;;;;;;5089179;28;20444;-46
2024/01/02 03:40:41;;;;;;;6.85;3.53;;;6.60;99.90;;;;;;5089161;28;20443;-46
2024/01/02 03:43:07;;;;;;;11.07;3.83;;;6.50;99.90;;;;;;5090253;28;20123;-46
2024/01/02 03:45:33;;;;;;;10.18;3.78;;;6.60;99.90;;;;;;5088539;28;20414;-45
2024/01/02 03:48:00;;;;;;;6.22;2.88;;;6.60;99.90;;;;;;5090534;28;20374;-45
2024/01/02 03:50:26;;;;;;;7.18;3.05;;;6.60;99.90;;;;;;5087465;28;20040;-45
2024/01/02 03:52:52;;;;;;;8.10;3.42;;;6.60;99.90;;;;;;5091745;28;20064;-45
2024/01/02 03:55:17;;;;;;;8.43;3.25;;;6.50;99.90;;;;;;5091074;28;20083;-45
2024/01/02 03:57:43;;;;;;;7.70;2.70;;;6.50;99.90;;;;;;5088865;28;20063;-45
2024/01/02 04:00:09;;;;;;;6.63;3.22;;;6.60;99.90;;;;;;5089821;28;20032;-45
2024/01/02 04:02:35;;;;;;;6.68;2.40;;;6.60;99.90;;;;;;5090706;28;20047;-45
2024/01/02 04:05:03;;;;;;;8.10;2.80;;;6.60;99.90;;;;;;5090161;28;20036;-45
2024/01/02 04:07:28;;;;;;;6.13;2.42;;;6.60;99.90;;;;;;5089963;28;20102;-45
2024/01/02 04:09:54;;;;;;;4.53;2.47;;;6.60;99.90;;;;;;5085269;28;20067;-44
2024/01/02 04:12:20;;;;;;;6.95;2.17;;;6.60;99.90;;;;;;5088186;28;20481;-45
2024/01/02 04:14:45;;;;;;;5.22;2.42;;;6.50;99.90;;;;;;5089474;28;20116;-45
2024/01/02 04:17:11;;;;;;;6.43;2.30;;;6.60;99.90;;;;;;5089205;28;20481;-46
2024/01/02 04:19:37;;;;;;;5.93;1.92;;;6.60;99.90;;;;;;5088740;28;20050;-46
2024/01/02 04:22:02;;;;;;;4.63;1.80;;;6.60;99.90;;;;;;5089116;28;20028;-46
2024/01/02 04:24:28;;;;;;;3.63;1.55;;;6.60;99.90;;;;;;5071277;28;20077;-48
2024/01/02 04:26:53;;;;;;;4.78;1.88;;;6.70;99.90;;;;;;5089348;28;20722;-48
2024/01/02 04:29:19;;;;;;;4.95;2.00;;;6.60;99.90;;;;;;5087756;28;20063;-47
2024/01/02 04:31:45;;;;;;;4.05;1.73;;;6.60;99.90;;;;;;5088782;28;20450;-48
2024/01/02 04:34:10;;;;;;;2.75;1.40;;;6.60;99.90;;;;;;5089434;28;20035;-45
2024/01/02 04:36:36;;;;;;;5.05;1.52;;;6.60;99.90;;;;;;5089115;28;20040;-46
2024/01/02 04:39:03;;;;;;;4.18;1.60;;;6.60;99.90;;;;;;5089256;28;20527;-47
2024/01/02 04:41:28;;;;;;;3.70;1.60;;;6.60;99.90;;;;;;5087417;28;20390;-47
2024/01/02 04:43:54;;;;;;;4.93;1.60;;;6.60;99.90;;;;;;5089240;28;20040;-47
2024/01/02 04:46:20;;;;;;;4.43;1.58;;;6.60;99.90;;;;;;5088482;28;20089;-47
2024/01/02 04:48:45;;;;;;;1.27;1.15;;;6.60;99.90;;;;;;5087218;28;20139;-50
2024/01/02 04:51:11;;;;;;;2.92;1.55;;;6.60;99.90;;;;;;5087700;28;20043;-46
2024/01/02 04:53:36;;;;;;;2.30;1.30;;;6.60;99.90;;;;;;5087452;28;20127;-46
2024/01/02 04:56:02;;;;;;;4.93;1.70;;;6.60;99.90;;;;;;5088565;28;20488;-45
2024/01/02 04:58:28;;;;;;;3.88;1.95;;;6.60;99.90;;;;;;5089991;28;20086;-46
2024/01/02 05:00:54;;;;;;;5.07;1.70;;;6.60;99.90;;;;;;5088588;28;20118;-45
2024/01/02 05:03:20;;;;;;;3.30;1.65;;;6.60;99.90;;;;;;5090254;28;20138;-45
2024/01/02 05:05:45;;;;;;;2.30;1.50;;;6.60;99.90;;;;;;5089686;28;20147;-46
2024/01/02 05:08:11;;;;;;;4.00;1.40;;;6.60;99.90;;;;;;5090284;28;20040;-46
2024/01/02 05:10:37;;;;;;;3.40;1.70;;;6.50;99.90;;;;;;5073380;28;20048;-45
2024/01/02 05:13:03;;;;;;;6.32;2.05;;;6.60;99.90;;;;;;5073031;28;20071;-46
2024/01/02 05:15:28;;;;;;;2.88;1.92;;;6.50;99.90;;;;;;5090745;28;20079;-47
2024/01/02 05:17:54;;;;;;;2.38;1.55;;;6.50;99.90;;;;;;5072345;28;20086;-45
2024/01/02 05:20:20;;;;;;;5.32;1.88;;;6.60;99.90;;;;;;5087993;28;20109;-46
2024/01/02 05:22:45;;;;;;;3.88;1.75;;;6.50;99.90;;;;;;5088346;28;20036;-45
2024/01/02 05:25:11;;;;;;;2.63;1.55;;;6.50;99.90;;;;;;5088432;28;20123;-45
2024/01/02 05:27:37;;;;;;;2.28;1.50;;;6.50;99.90;;;;;;5089353;28;20064;-46
2024/01/02 05:30:03;;;;;;;1.95;1.50;;;6.50;99.90;;;;;;5088547;28;20075;-45
2024/01/02 05:32:29;;;;;;;3.72;1.85;;;6.50;99.90;;;;;;5087422;28;20048;-46
2024/01/02 05:34:54;;;;;;;2.90;1.70;;;6.60;99.90;;;;;;5088240;28;20094;-45
2024/01/02 05:37:20;;;;;;;2.08;1.63;;;6.60;99.90;;;;;;5071862;28;20050;-45
2024/01/02 05:39:46;;;;;;;2.55;1.35;;;6.60;99.90;;;;;;5088721;28;20043;-46
2024/01/02 05:42:11;;;;;;;3.35;1.83;;;6.60;99.90;;;;;;5088267;28;20036;-47
2024/01/02 05:44:37;;;;;;;2.20;1.73;;;6.60;99.90;;;;;;5089337;28;20466;-45
2024/01/02 05:47:03;;;;;;;2.13;1.40;;;6.70;99.90;;;;;;5088188;28;20226;-45
2024/01/02 05:49:28;;;;;;;2.63;1.73;;;6.70;99.90;;;;;;5071240;28;20048;-47
2024/01/02 05:51:56;;;;;;;3.60;1.60;;;6.60;99.90;;;;;;5088912;28;20047;-45
2024/01/02 05:54:22;;;;;;;1.50;1.40;;;6.60;99.90;;;;;;5088080;28;20059;-45
2024/01/02 05:56:47;;;;;;;2.65;1.55;;;6.70;99.90;;;;;;5086505;28;20036;-45
2024/01/02 05:59:13;;;;;;;1.73;1.60;;;6.70;99.90;;;;;;5088770;28;20044;-46
2024/01/02 06:01:38;;;;;;;1.73;1.60;;;6.60;99.90;;;;;;5088717;28;20477;-45
2024/01/02 06:04:04;;;;;;;3.08;1.70;;;6.70;99.90;;;;;;5089710;28;20044;-46
2024/01/02 06:06:29;;;;;;;2.17;1.92;;;6.80;99.90;;;;;;5089085;28;20043;-46
2024/01/02 06:08:55;;;;;;;2.65;1.70;;;6.80;99.90;;;;;;5086380;28;20047;-46
2024/01/02 06:11:21;;;;;;;3.58;1.98;;;6.80;99.90;;;;;;5088072;28;20040;-46
2024/01/02 06:13:46;;;;;;;2.00;1.83;;;6.70;99.90;;;;;;5088002;28;20473;-46
2024/01/02 06:16:12;;;;;;;2.63;2.42;;;6.90;99.90;;;;;;5088863;28;20055;-46
2024/01/02 06:18:38;;;;;;;2.78;2.00;;;6.80;99.90;;;;;;5091314;28;20043;-46
2024/01/02 06:21:04;;;;;;;2.08;1.98;;;6.90;99.90;;;;;;5092607;28;20058;-47
2024/01/02 06:23:33;;;;;;;1.67;1.58;;;6.80;99.90;;;;;;5091445;28;20070;-46
2024/01/02 06:25:59;;;;;;;2.10;1.95;;;6.80;99.90;;;;;;5091939;28;20044;-45
2024/01/02 06:28:25;;;;;;;1.88;1.77;;;6.90;99.90;;;;;;5091873;28;20047;-45
2024/01/02 06:30:51;;;;;;;2.75;2.05;;;6.90;99.90;;;;;;5074174;28;20040;-46
2024/01/02 06:33:17;;;;;;;2.28;2.17;;;6.90;99.90;;;;;;5091362;28;20036;-46
2024/01/02 06:35:42;;;;;;;2.25;2.15;;;7.00;99.90;;;;;;5090830;28;20432;-45
2024/01/02 06:38:11;;;;;;;2.70;2.50;;;7.00;99.90;;;;;;5090816;28;20043;-47
2024/01/02 06:40:37;;;;;;;3.80;3.50;;;6.90;99.90;;;;;;5091468;28;20044;-46
2024/01/02 06:43:03;;;;;;;3.35;3.05;;;7.00;99.90;;;;;;5091470;28;20067;-46
2024/01/02 06:45:29;;;;;;;4.00;3.70;;;7.00;99.90;;;;;;5091403;28;20032;-46
2024/01/02 06:47:55;;;;;;;3.35;3.05;;;7.10;99.90;;;;;;5091365;28;20074;-45
2024/01/02 06:50:21;;;;;;;3.70;3.40;;;7.10;99.90;;;;;;5092125;28;20075;-46
2024/01/02 06:52:47;;;;;;;4.72;3.90;;;7.10;99.90;;;;;;5073908;28;20044;-45
2024/01/02 06:55:13;;;;;;;4.28;3.97;;;7.10;99.90;;;;;;5091526;28;20566;-46
2024/01/02 06:57:39;;;;;;;3.67;3.38;;;7.10;99.90;;;;;;5091770;28;20036;-46
2024/01/02 07:00:06;;;;;;;3.63;3.33;;;7.30;99.90;;;;;;5091237;28;20118;-46
2024/01/02 07:02:32;;;;;;;4.80;3.50;;;7.30;99.90;;;;;;5091000;28;20066;-46
2024/01/02 07:04:59;;;;;;;4.38;3.97;;;7.80;99.90;;;;;;5092045;28;20044;-47
2024/01/02 07:07:24;;;;;;;5.03;4.20;;;7.50;99.90;;;;;;5092975;28;20097;-47
2024/01/02 07:09:50;;;;;;;4.07;3.72;;;7.40;99.90;;;;;;5092843;28;20040;-46
2024/01/02 07:12:17;;;;;;;3.95;3.65;;;7.60;99.90;;;;;;5093034;28;20036;-46
2024/01/02 07:14:43;;;;;;;5.18;3.85;;;7.60;99.90;;;;;;5075185;28;20058;-46
2024/01/02 07:17:09;;;;;;;4.63;4.03;;;7.60;99.90;;;;;;5092705;28;20051;-46
2024/01/02 07:19:34;;;;;;;4.47;4.07;;;7.60;99.90;;;;;;5074139;28;20052;-46
2024/01/02 07:22:00;;;;;;;4.18;3.88;;;7.60;99.90;;;;;;5091885;28;20089;-46
2024/01/02 07:24:26;;;;;;;4.53;3.88;;;7.70;99.90;;;;;;5092266;28;20044;-46
2024/01/02 07:26:52;;;;;;;5.28;4.18;;;7.80;99.90;;;;;;5092609;28;20067;-47
2024/01/02 07:29:17;;;;;;;4.38;3.97;;;7.70;99.90;;;;;;5091049;28;20078;-47
2024/01/02 07:31:43;;;;;;;4.43;4.03;;;7.90;99.90;;;;;;5092075;28;20028;-47
2024/01/02 07:34:12;;;;;;;4.18;3.63;;;7.90;99.90;;;;;;5091965;28;20043;-46
2024/01/02 07:36:38;;;;;;;3.97;3.17;;;7.90;99.90;;;;;;5091234;28;20438;-47
2024/01/02 07:39:04;;;;;;;3.85;3.20;;;7.90;99.90;;;;;;5091537;28;20437;-45
2024/01/02 07:41:30;;;;;;;5.07;3.50;;;7.90;99.90;;;;;;5093217;28;20048;-45
2024/01/02 07:43:56;;;;;;;3.17;2.80;;;7.90;99.90;;;;;;5092839;28;20044;-46
2024/01/02 07:46:22;;;;;;;4.45;3.20;;;7.90;99.90;;;;;;5092730;28;20039;-46
2024/01/02 07:48:47;;;;;;;6.30;3.38;;;8.10;99.90;;;;;;5092831;28;20409;-47
2024/01/02 07:51:13;;;;;;;4.18;3.45;;;8.10;99.90;;;;;;5092100;28;20122;-46
2024/01/02 07:53:38;;;;;;;4.72;3.38;;;8.10;99.90;;;;;;5092260;28;20043;-46
2024/01/02 07:56:05;;;;;;;4.78;3.72;;;8.20;99.90;;;;;;5089764;28;20097;-47
2024/01/02 07:58:30;;;;;;;6.50;4.10;;;8.30;99.90;;;;;;5071757;28;20322;-46
2024/01/02 08:00:56;;;;;;;7.32;4.00;;;8.30;99.90;;;;;;5090103;28;20032;-47
2024/01/02 08:03:21;;;;;;;8.40;4.50;;;8.30;99.90;;;;;;5091605;28;20032;-46
2024/01/02 08:05:47;;;;;;;5.80;4.28;;;8.40;99.90;;;;;;5090885;28;20047;-46
2024/01/02 08:08:13;;;;;;;7.25;4.45;;;8.40;99.90;;;;;;5091433;28;20122;-46
2024/01/02 08:10:38;;;;;;;7.40;4.40;;;8.30;99.90;;;;;;5091210;28;20039;-45
2024/01/02 08:13:04;;;;;;;9.00;5.18;;;8.30;99.90;;;;;;5089735;28;20032;-46
2024/01/02 08:15:32;;;;;;;8.10;5.20;;;8.50;99.90;;;;;;5090201;28;20032;-46
2024/01/02 08:17:58;;;;;;;10.48;5.10;;;8.50;99.90;;;;;;5090968;28;20043;-45
2024/01/02 08:20:23;;;;;;;13.13;5.50;;;8.50;99.90;;;;;;5090057;28;20036;-46
2024/01/02 08:22:49;;;;;;;12.25;5.63;;;8.50;99.90;;;;;;5089359;28;20040;-46
2024/01/02 08:25:15;;;;;;;8.95;5.22;;;8.60;99.90;;;;;;5088440;28;20047;-48
2024/01/02 08:27:41;;;;;;;9.05;5.30;;;8.60;99.90;;;;;;5089804;28;20039;-46
2024/01/02 08:30:07;;;;;;;10.65;6.05;;;8.70;99.90;;;;;;5089442;28;20425;-46
2024/01/02 08:32:33;;;;;;;13.35;6.18;;;8.70;99.90;;;;;;5089622;28;20044;-46
2024/01/02 08:34:59;;;;;;;11.65;6.22;;;8.80;99.90;;;;;;5087864;28;20039;-49
2024/01/02 08:37:25;;;;;;;11.82;6.47;;;8.80;99.90;;;;;;5089420;28;20062;-46
2024/01/02 08:39:51;;;;;;;10.32;6.32;;;8.80;99.90;;;;;;5090056;28;20130;-47
2024/01/02 08:42:17;;;;;;;12.25;6.13;;;8.80;99.90;;;;;;5089279;28;20441;-46
2024/01/02 08:44:42;;;;;;;13.32;5.80;;;8.90;99.90;;;;;;5089304;28;20397;-46
2024/01/02 08:47:08;;;;;;;11.77;5.93;;;8.90;99.90;;;;;;5089788;28;20036;-46
2024/01/02 08:49:33;;;;;;;12.75;6.47;;;8.90;99.90;;;;;;5089502;28;20036;-46
2024/01/02 08:51:59;;;;;;;15.23;7.13;;;8.90;99.90;;;;;;5089578;28;20047;-46
2024/01/02 08:54:25;;;;;;;14.48;5.88;;;9.00;99.90;;;;;;5089741;28;20055;-46
2024/01/02 08:56:50;;;;;;;15.35;6.35;;;9.00;99.90;;;;;;5089473;28;20048;-48
2024/01/02 08:59:16;;;;;;;10.70;5.70;;;9.10;99.90;;;;;;5088700;28;20048;-48
2024/01/02 09:01:41;;;;;;;19.58;6.30;;;9.20;99.90;;;;;;5089800;28;20036;-46
2024/01/02 09:04:07;;;;;;;16.55;5.93;;;9.20;99.90;;;;;;5089328;28;20465;-47
2024/01/02 09:06:33;;;;;;;10.40;5.22;;;;;;;;;;5090013;28;20036;-47
2024/01/02 09:08:58;;;;;;;16.88;6.40;;;9.40;99.90;;;;;;5088970;28;20074;-46
2024/01/02 09:11:24;;;;;;;18.40;5.97;;;9.30;99.90;;;;;;5091195;28;20067;-47
2024/01/02 09:13:50;;;;;;;15.98;5.97;;;9.50;99.90;;;;;;5090487;28;20079;-47
2024/01/02 09:16:17;;;;;;;20.95;5.72;;;9.50;99.90;;;;;;5089568;28;20028;-49
2024/01/02 09:18:42;;;;;;;18.00;5.38;;;9.50;99.90;;;;;;5088746;28;20057;-50
2024/01/02 09:21:08;;;;;;;15.52;5.15;;;9.60;99.90;;;;;;5089165;28;20036;-47
2024/01/02 09:23:34;;;;;;;19.17;5.10;;;9.50;99.90;;;;;;5089739;28;20036;-47
2024/01/02 09:26:04;;;;;;;17.40;4.85;;;9.60;99.90;;;;;;5089314;28;20032;-46
2024/01/02 09:28:30;;;;;;;12.57;4.38;;;9.60;99.90;;;;;;5088431;28;20044;-49
2024/01/02 09:30:56;;;;;;;20.65;4.85;;;9.70;99.90;;;;;;5086775;28;20048;-46
2024/01/02 09:33:25;;;;;;;20.52;4.30;;;9.80;99.90;;;;;;5088735;28;20519;-47
2024/01/02 09:35:51;;;;;;;21.02;4.57;;;9.80;99.90;;;;;;5089011;28;20048;-46
2024/01/02 09:38:16;;;;;;;22.55;4.43;;;9.80;99.90;;;;;;5088314;28;20168;-47
2024/01/02 09:40:53;;;;;;;22.42;3.85;;;9.90;99.90;;;;;;5089122;28;20059;-47
2024/01/02 09:43:31;;;;;;;22.87;3.67;;;10.10;99.90;;;;;;5087720;28;20192;-47
2024/01/02 09:46:06;;;;;;;19.70;4.07;;;10.00;99.90;;;;;;5088986;28;20044;-47
2024/01/02 09:48:47;;;;;;;15.93;3.55;;;10.10;99.90;;;;;;5089769;28;20491;-47
2024/01/02 09:51:16;;;;;;;21.65;3.95;;;10.10;99.90;;;;;;5089635;28;20060;-47
2024/01/02 09:54:05;;;;;;;22.25;3.75;;;10.20;99.90;;;;;;5093572;28;20047;-46
2024/01/02 09:56:47;;;;;;;21.00;3.92;;;10.10;99.90;;;;;;5095115;28;20413;-47
2024/01/02 09:59:39;;;;;;;26.40;4.10;;;10.20;99.90;;;;;;5093879;28;20055;-47
2024/01/02 10:02:41;;;;;;;21.95;3.42;;;10.20;99.90;;;;;;5092178;28;20044;-47
2024/01/02 10:05:19;;;;;;;23.58;3.83;;;10.30;99.90;;;;;;5002671;28;20153;-47
2024/01/02 10:08:23;;;;;;;23.90;3.78;;;10.30;99.90;;;;;;5000493;28;20058;-47
2024/01/02 10:11:11;;;;;;;26.00;4.35;;;10.40;99.90;;;;;;4995865;28;20101;-46
2024/01/02 10:13:43;;;;;;;28.77;4.47;;;10.40;99.90;;;;;;5012097;28;20053;-47
2024/01/02 10:16:25;;;;;;;24.33;4.32;;;10.50;99.90;;;;;;5006609;28;20057;-47
2024/01/02 10:19:07;;;;;;;25.83;4.63;;;10.40;99.90;;;;;;5008939;28;20062;-47
2024/01/02 10:22:08;;;;;;;27.50;4.53;;;10.50;99.90;;;;;;4994038;28;20480;-47
2024/01/02 10:24:59;;;;;;;27.30;4.25;;;10.50;99.90;;;;;;4978763;28;20107;-47
2024/01/02 10:27:45;;;;;;;27.23;5.07;;;10.50;99.90;;;;;;4991806;28;20503;-48
2024/01/02 10:30:12;;;;;;;24.20;4.47;;;10.60;99.90;;;;;;5010140;28;20129;-47
2024/01/02 10:32:40;;;;;;;24.27;4.95;;;10.60;99.90;;;;;;5006747;28;20479;-47
2024/01/02 10:35:19;;;;;;;25.60;4.85;;;10.60;99.90;;;;;;5010397;28;20128;-46
2024/01/02 10:38:04;;;;;;;28.15;5.35;;;10.60;99.90;;;;;;5008178;28;20046;-47
2024/01/02 10:40:29;;;;;;;25.85;4.75;;;10.50;99.90;;;;;;5009413;28;20403;-47
2024/01/02 10:43:01;;;;;;;20.77;4.95;;;10.50;99.90;;;;;;5076006;28;20044;-48
2024/01/02 10:45:33;;;;;;;29.35;5.10;;;10.50;99.90;;;;;;5092807;28;20118;-47
2024/01/02 10:48:13;;;;;;;26.23;5.68;;;10.50;99.90;;;;;;5089843;28;20043;-47
2024/01/02 10:50:49;;;;;;;25.95;5.72;;;10.60;99.90;;;;;;5076993;28;20042;-47
2024/01/02 10:53:15;;;;;;;29.77;5.85;;;10.60;99.90;;;;;;5093069;28;20047;-47
2024/01/02 10:55:54;;;;;;;27.30;5.85;;;10.60;99.90;;;;;;5093646;28;20389;-47
2024/01/02 10:58:27;;;;;;;23.65;5.50;;;10.70;99.90;;;;;;5093763;28;20043;-47
2024/01/02 11:01:03;;;;;;;26.30;5.75;;;10.60;99.90;;;;;;5075030;28;20115;-47
2024/01/02 11:03:34;;;;;;;29.55;5.22;;;10.70;99.90;;;;;;5088299;28;20439;-50
2024/01/02 11:06:12;;;;;;;26.63;5.93;;;10.70;99.90;;;;;;5091158;28;20043;-46
2024/01/02 11:08:51;;;;;;;24.65;5.30;;;10.70;99.90;;;;;;5090698;28;20128;-47
2024/01/02 11:11:18;;;;;;;24.77;5.18;;;10.80;99.90;;;;;;5091163;28;20515;-47
2024/01/02 11:13:46;;;;;;;28.08;6.20;;;10.80;99.90;;;;;;5091365;28;20071;-49
2024/01/02 11:16:22;;;;;;;;;;;10.80;99.90;;;;;;5090722;28;20439;-48
2024/01/02 11:18:51;;;;;;;29.77;5.60;;;10.80;99.90;;;;;;5092290;28;20014;-48
2024/01/02 11:21:38;;;;;;;24.55;5.50;;;10.80;99.90;;;;;;5093295;28;20083;-47
2024/01/02 11:24:06;;;;;;;29.30;6.18;;;10.80;99.90;;;;;;5090234;28;20047;-46
2024/01/02 11:26:40;;;;;;;27.13;6.00;;;10.80;99.90;;;;;;5090602;28;20036;-47
2024/01/02 11:29:15;;;;;;;27.02;5.95;;;10.90;99.90;;;;;;5090650;28;20404;-47
2024/01/02 11:31:42;;;;;;;26.48;6.53;;;10.80;99.90;;;;;;5091553;28;20036;-47
2024/01/02 11:34:10;;;;;;;26.40;5.97;;;10.80;99.90;;;;;;5092072;28;21861;-47
2024/01/02 11:37:04;;;;;;;27.92;6.47;;;10.90;99.90;;;;;;5070708;28;20149;-47
2024/01/02 11:39:42;;;;;;;27.50;6.40;;;10.90;99.90;;;;;;5090777;28;20047;-51
2024/01/02 11:42:17;;;;;;;;;;;10.80;99.90;;;;;;5091012;28;20044;-47
2024/01/02 11:45:06;;;;;;;29.58;6.70;;;10.90;99.90;;;;;;5090536;28;19927;-48
2024/01/02 11:47:36;;;;;;;29.15;6.97;;;11.00;99.90;;;;;;5090655;28;20040;-47
2024/01/02 11:50:03;;;;;;;28.65;6.93;;;10.90;99.90;;;;;;5088466;28;20048;-48
2024/01/02 11:52:32;;;;;;;28.40;6.47;;;10.90;99.90;;;;;;5090328;28;20386;-47
2024/01/02 11:55:24;;;;;;;34.03;6.95;;;10.90;99.90;;;;;;5090321;28;20056;-47
2024/01/02 11:57:51;;;;;;;26.27;6.22;;;10.90;99.90;;;;;;5088670;28;20072;-47
2024/01/02 12:00:36;;;;;;;28.77;6.30;;;10.90;99.90;;;;;;5090654;28;20040;-47
2024/01/02 12:03:35;;;;;;;27.85;5.25;;;10.90;99.90;;;;;;5090863;28;20080;-47
2024/01/02 12:06:11;;;;;;;28.40;5.97;;;10.90;99.90;;;;;;5087262;28;20131;-48
2024/01/02 12:08:45;;;;;;;27.35;5.95;;;10.90;99.90;;;;;;5089419;28;20062;-47
2024/01/02 12:11:17;;;;;;;23.13;6.40;;;10.90;99.90;;;;;;5085853;28;20054;-48
2024/01/02 12:14:12;;;;;;;28.63;5.45;;;10.80;99.90;;;;;;5089997;28;20599;-47
2024/01/02 12:16:42;;;;;;;24.00;5.80;;;10.90;99.90;;;;;;5089032;28;20497;-46
2024/01/02 12:19:13;;;;;;;31.23;7.15;;;10.90;99.90;;;;;;5089805;28;20117;-45
2024/01/02 12:21:40;;;;;;;26.73;5.72;;;10.90;99.90;;;;;;5089667;28;20043;-47
2024/01/02 12:24:08;;;;;;;26.77;6.17;;;10.90;99.90;;;;;;5093257;28;20408;-47
2024/01/02 12:26:36;;;;;;;;;;;10.90;99.90;;;;;;5087468;28;20086;-48
2024/01/02 12:29:02;;;;;;;30.15;6.68;;;10.80;99.90;;;;;;5086321;28;19934;-50
2024/01/02 12:31:58;;;;;;;34.13;9.75;;;10.80;99.90;;;;;;5086054;28;20485;-49
2024/01/02 12:34:45;;;;;;;33.35;7.88;;;10.80;99.90;;;;;;5088179;28;20412;-47
2024/01/02 12:37:23;;;;;;;34.05;8.90;;;10.80;99.90;;;;;;5056083;28;20374;-46
2024/01/02 12:39:53;;;;;;;31.63;7.93;;;10.80;99.90;;;;;;5089533;28;20116;-47
2024/01/02 12:42:21;;;;;;;34.38;8.68;;;10.80;99.90;;;;;;5071724;28;20036;-49
2024/01/02 12:44:50;;;;;;;37.58;8.65;;;10.80;99.90;;;;;;5088612;28;20051;-47
2024/01/02 12:47:22;;;;;;;35.50;8.80;;;10.80;99.90;;;;;;5089095;28;20055;-47
2024/01/02 12:49:54;;;;;;;42.20;9.35;;;10.80;99.90;;;;;;5070695;28;20048;-47
2024/01/02 12:52:25;;;;;;;33.22;8.75;;;10.80;99.90;;;;;;5088994;28;20032;-47
2024/01/02 12:54:54;;;;;;;35.50;9.68;;;10.80;99.90;;;;;;5089297;28;20127;-47
2024/01/02 12:57:20;;;;;;;36.45;9.13;;;10.80;99.90;;;;;;5089918;28;20048;-47